sensor_id;sensor_type;location;lat;lon;timestamp;pressure;altitude;pressure_sealevel;temperature;humidity
23229;BME280;11783;50.350;6.576;2023-04-23T00:00:42;95503.56;;;12.12;99.90
23229;BME280;11783;50.350;6.576;2023-04-23T00:03:08;95491.59;;;12.10;99.98
23229;BME280;11783;50.350;6.576;2023-04-23T00:05:37;95493.97;;;12.11;99.51
23229;BME280;11783;50.350;6.576;2023-04-23T00:08:04;95490.00;;;12.09;99.20
23229;BME280;11783;50.350;6.576;2023-04-23T00:10:30;95499.28;;;12.06;99.49
23229;BME280;11783;50.350;6.576;2023-04-23T00:12:59;95487.59;;;12.02;99.97
23229;BME280;11783;50.350;6.576;2023-04-23T00:15:24;95489.47;;;12.02;99.86
23229;BME280;11783;50.350;6.576;2023-04-23T00:17:50;95495.31;;;11.99;100.00
23229;BME280;11783;50.350;6.576;2023-04-23T00:20:16;95492.41;;;11.95;99.87
23229;BME280;11783;50.350;6.576;2023-04-23T00:22:47;95494.03;;;11.91;100.00
23229;BME280;11783;50.350;6.576;2023-04-23T00:25:13;95494.03;;;11.91;100.00
23229;BME280;11783;50.350;6.576;2023-04-23T00:27:39;95490.81;;;11.89;100.00
23229;BME280;11783;50.350;6.576;2023-04-23T00:30:05;95494.53;;;11.73;100.00
23229;BME280;11783;50.350;6.576;2023-04-23T00:32:31;95489.22;;;11.78;100.00
23229;BME280;11783;50.350;6.576;2023-04-23T00:34:57;95486.84;;;11.81;100.00
23229;BME280;11783;50.350;6.576;2023-04-23T00:37:22;95484.69;;;11.83;100.00
23229;BME280;11783;50.350;6.576;2023-04-23T00:39:48;95485.75;;;11.72;100.00
23229;BME280;11783;50.350;6.576;2023-04-23T00:42:13;95485.47;;;11.69;100.00
23229;BME280;11783;50.350;6.576;2023-04-23T00:44:42;95486.03;;;11.76;100.00
23229;BME280;11783;50.350;6.576;2023-04-23T00:47:08;95486.03;;;11.76;100.00
23229;BME280;11783;50.350;6.576;2023-04-23T00:49:35;95482.31;;;11.57;100.00
23229;BME280;11783;50.350;6.576;2023-04-23T00:52:03;95484.97;;;11.41;100.00
23229;BME280;11783;50.350;6.576;2023-04-23T00:54:35;95483.88;;;11.52;100.00
23229;BME280;11783;50.350;6.576;2023-04-23T00:57:03;95480.44;;;11.47;100.00
23229;BME280;11783;50.350;6.576;2023-04-23T00:59:30;95480.41;;;11.52;100.00
23229;BME280;11783;50.350;6.576;2023-04-23T01:01:56;95488.41;;;11.52;100.00
23229;BME280;11783;50.350;6.576;2023-04-23T01:04:23;95479.63;;;11.46;100.00
23229;BME280;11783;50.350;6.576;2023-04-23T01:06:52;95482.56;;;11.35;100.00
23229;BME280;11783;50.350;6.576;2023-04-23T01:09:18;95473.78;;;11.29;100.00
23229;BME280;11783;50.350;6.576;2023-04-23T01:11:46;95481.22;;;11.27;100.00
23229;BME280;11783;50.350;6.576;2023-04-23T01:14:11;95481.78;;;11.39;100.00
23229;BME280;11783;50.350;6.576;2023-04-23T01:16:37;95475.41;;;11.35;100.00
23229;BME280;11783;50.350;6.576;2023-04-23T01:19:07;95475.38;;;11.30;100.00
23229;BME280;11783;50.350;6.576;2023-04-23T01:21:34;95477.78;;;11.37;100.00
23229;BME280;11783;50.350;6.576;2023-04-23T01:24:01;95466.34;;;11.41;100.00
23229;BME280;11783;50.350;6.576;2023-04-23T01:26:27;95470.84;;;11.46;100.00
23229;BME280;11783;50.350;6.576;2023-04-23T01:28:53;95463.69;;;11.36;100.00
23229;BME280;11783;50.350;6.576;2023-04-23T01:31:21;95464.22;;;11.38;100.00
23229;BME280;11783;50.350;6.576;2023-04-23T01:33:49;95464.19;;;11.33;100.00
23229;BME280;11783;50.350;6.576;2023-04-23T01:36:15;95473.78;;;11.39;100.00
23229;BME280;11783;50.350;6.576;2023-04-23T01:38:41;95469.81;;;11.42;100.00
23229;BME280;11783;50.350;6.576;2023-04-23T01:41:06;95481.22;;;11.47;100.00
23229;BME280;11783;50.350;6.576;2023-04-23T01:43:32;95472.72;;;11.50;100.00
23229;BME280;11783;50.350;6.576;2023-04-23T01:45:58;95477.53;;;11.38;100.00
23229;BME280;11783;50.350;6.576;2023-04-23T01:48:24;95491.09;;;11.42;100.00
23229;BME280;11783;50.350;6.576;2023-04-23T01:50:50;95486.03;;;11.35;100.00
23229;BME280;11783;50.350;6.576;2023-04-23T01:53:17;95483.63;;;11.29;100.00
23229;BME280;11783;50.350;6.576;2023-04-23T01:55:46;95484.41;;;11.29;100.00
23229;BME280;11783;50.350;6.576;2023-04-23T01:58:12;95488.69;;;11.25;100.00
23229;BME280;11783;50.350;6.576;2023-04-23T02:00:38;95485.47;;;11.28;100.00
23229;BME280;11783;50.350;6.576;2023-04-23T02:03:04;95487.06;;;10.99;100.00
23229;BME280;11783;50.350;6.576;2023-04-23T02:05:33;95485.16;;;10.94;100.00
23229;BME280;11783;50.350;6.576;2023-04-23T02:07:59;95483.34;;;11.05;100.00
23229;BME280;11783;50.350;6.576;2023-04-23T02:10:25;95482.25;;;10.96;100.00
23229;BME280;11783;50.350;6.576;2023-04-23T02:12:50;95480.13;;;11.13;100.00
23229;BME280;11783;50.350;6.576;2023-04-23T02:15:16;95483.34;;;11.00;100.00
23229;BME280;11783;50.350;6.576;2023-04-23T02:17:41;95481.75;;;11.04;100.00
23229;BME280;11783;50.350;6.576;2023-04-23T02:20:08;95479.06;;;11.14;100.00
23229;BME280;11783;50.350;6.576;2023-04-23T02:22:36;95475.88;;;11.12;100.00
23229;BME280;11783;50.350;6.576;2023-04-23T02:25:02;95475.88;;;11.12;100.00
23229;BME280;11783;50.350;6.576;2023-04-23T02:27:28;95472.44;;;11.27;100.00
23229;BME280;11783;50.350;6.576;2023-04-23T02:29:53;95471.91;;;11.25;100.00
23229;BME280;11783;50.350;6.576;2023-04-23T02:32:19;95470.31;;;11.18;100.00
23229;BME280;11783;50.350;6.576;2023-04-23T02:34:44;95475.88;;;11.12;100.00
23229;BME280;11783;50.350;6.576;2023-04-23T02:37:10;95480.69;;;11.05;100.00
23229;BME280;11783;50.350;6.576;2023-04-23T02:39:36;95473.75;;;11.14;100.00
23229;BME280;11783;50.350;6.576;2023-04-23T02:42:03;95477.22;;;11.14;100.00
23229;BME280;11783;50.350;6.576;2023-04-23T02:44:28;95474.81;;;11.13;100.00
23229;BME280;11783;50.350;6.576;2023-04-23T02:46:54;95469.25;;;11.09;100.00
23229;BME280;11783;50.350;6.576;2023-04-23T02:49:20;95469.53;;;11.18;100.00
23229;BME280;11783;50.350;6.576;2023-04-23T02:51:45;95464.75;;;11.20;100.00
23229;BME280;11783;50.350;6.576;2023-04-23T02:54:11;95472.94;;;10.93;100.00
23229;BME280;11783;50.350;6.576;2023-04-23T02:56:36;95467.66;;;11.03;100.00
23229;BME280;11783;50.350;6.576;2023-04-23T02:59:02;95463.13;;;11.04;100.00
23229;BME280;11783;50.350;6.576;2023-04-23T03:01:27;95466.31;;;11.06;100.00
23229;BME280;11783;50.350;6.576;2023-04-23T03:03:54;95472.97;;;11.03;100.00
23229;BME280;11783;50.350;6.576;2023-04-23T03:06:20;95466.84;;;11.03;100.00
23229;BME280;11783;50.350;6.576;2023-04-23T03:08:45;95463.66;;;11.01;100.00
23229;BME280;11783;50.350;6.576;2023-04-23T03:11:10;95457.50;;;10.95;100.00
23229;BME280;11783;50.350;6.576;2023-04-23T03:13:36;95459.91;;;10.91;100.00
23229;BME280;11783;50.350;6.576;2023-04-23T03:16:02;95465.69;;;10.63;100.00
23229;BME280;11783;50.350;6.576;2023-04-23T03:18:28;95461.19;;;10.64;100.00
23229;BME280;11783;50.350;6.576;2023-04-23T03:20:53;95470.50;;;10.66;100.00
23229;BME280;11783;50.350;6.576;2023-04-23T03:23:19;95466.25;;;10.65;100.00
23229;BME280;11783;50.350;6.576;2023-04-23T03:25:44;95475.06;;;10.81;100.00
23229;BME280;11783;50.350;6.576;2023-04-23T03:28:09;95472.13;;;10.82;100.00
23229;BME280;11783;50.350;6.576;2023-04-23T03:30:35;95470.28;;;10.83;100.00
23229;BME280;11783;50.350;6.576;2023-04-23T03:33:01;95473.47;;;10.85;100.00
23229;BME280;11783;50.350;6.576;2023-04-23T03:35:26;95477.72;;;10.91;100.00
23229;BME280;11783;50.350;6.576;2023-04-23T03:37:52;95478.25;;;10.83;100.00
23229;BME280;11783;50.350;6.576;2023-04-23T03:40:18;95474.78;;;10.82;100.00
23229;BME280;11783;50.350;6.576;2023-04-23T03:42:44;95475.59;;;10.83;100.00
23229;BME280;11783;50.350;6.576;2023-04-23T03:45:10;95474.00;;;10.87;100.00
23229;BME280;11783;50.350;6.576;2023-04-23T03:47:37;95462.78;;;10.75;100.00
23229;BME280;11783;50.350;6.576;2023-04-23T03:50:03;95459.88;;;10.76;100.00
23229;BME280;11783;50.350;6.576;2023-04-23T03:52:29;95455.63;;;10.70;100.00
23229;BME280;11783;50.350;6.576;2023-04-23T03:54:54;95460.38;;;10.63;100.00
23229;BME280;11783;50.350;6.576;2023-04-23T03:57:20;95455.63;;;10.70;100.00
23229;BME280;11783;50.350;6.576;2023-04-23T03:59:45;95451.63;;;10.63;100.00
23229;BME280;11783;50.350;6.576;2023-04-23T04:02:11;95453.97;;;10.49;100.00
23229;BME280;11783;50.350;6.576;2023-04-23T04:04:36;95444.34;;;10.38;100.00
23229;BME280;11783;50.350;6.576;2023-04-23T04:07:01;95450.75;;;10.42;100.00
23229;BME280;11783;50.350;6.576;2023-04-23T04:09:27;95444.88;;;10.35;100.00
23229;BME280;11783;50.350;6.576;2023-04-23T04:11:53;95446.19;;;10.32;100.00
23229;BME280;11783;50.350;6.576;2023-04-23T04:14:18;95444.59;;;10.26;100.00
23229;BME280;11783;50.350;6.576;2023-04-23T04:16:44;95448.09;;;10.42;100.00
23229;BME280;11783;50.350;6.576;2023-04-23T04:19:09;95450.50;;;10.53;100.00
23229;BME280;11783;50.350;6.576;2023-04-23T04:21:35;95450.78;;;10.52;100.00
23229;BME280;11783;50.350;6.576;2023-04-23T04:24:01;95459.56;;;10.57;100.00
23229;BME280;11783;50.350;6.576;2023-04-23T04:26:27;95462.75;;;10.59;100.00
23229;BME280;11783;50.350;6.576;2023-04-23T04:28:53;95459.03;;;10.55;100.00
23229;BME280;11783;50.350;6.576;2023-04-23T04:31:18;95461.44;;;10.62;100.00
23229;BME280;11783;50.350;6.576;2023-04-23T04:33:47;95461.44;;;10.62;100.00
23229;BME280;11783;50.350;6.576;2023-04-23T04:36:12;95458.53;;;10.64;100.00
23229;BME280;11783;50.350;6.576;2023-04-23T04:38:38;95455.34;;;10.61;100.00
23229;BME280;11783;50.350;6.576;2023-04-23T04:41:04;95454.56;;;10.71;100.00
23229;BME280;11783;50.350;6.576;2023-04-23T04:43:30;95458.78;;;10.62;100.00
23229;BME280;11783;50.350;6.576;2023-04-23T04:45:57;95455.34;;;10.67;100.00
23229;BME280;11783;50.350;6.576;2023-04-23T04:48:23;95455.06;;;10.68;100.00
23229;BME280;11783;50.350;6.576;2023-04-23T04:50:49;95468.38;;;10.63;100.00
23229;BME280;11783;50.350;6.576;2023-04-23T04:53:14;95459.31;;;10.64;100.00
23229;BME280;11783;50.350;6.576;2023-04-23T04:55:40;95456.69;;;10.69;100.00
23229;BME280;11783;50.350;6.576;2023-04-23T04:58:05;95466.78;;;10.67;100.00
23229;BME280;11783;50.350;6.576;2023-04-23T05:00:31;95460.94;;;10.65;100.00
23229;BME280;11783;50.350;6.576;2023-04-23T05:02:57;95460.41;;;10.68;100.00
23229;BME280;11783;50.350;6.576;2023-04-23T05:05:24;95460.13;;;10.70;100.00
23229;BME280;11783;50.350;6.576;2023-04-23T05:07:50;95463.81;;;10.58;100.00
23229;BME280;11783;50.350;6.576;2023-04-23T05:10:15;95458.28;;;10.70;100.00
23229;BME280;11783;50.350;6.576;2023-04-23T05:12:42;95459.34;;;10.69;100.00
23229;BME280;11783;50.350;6.576;2023-04-23T05:15:08;95451.41;;;10.79;100.00
23229;BME280;11783;50.350;6.576;2023-04-23T05:17:43;95453.75;;;10.76;100.00
23229;BME280;11783;50.350;6.576;2023-04-23T05:20:09;95455.13;;;10.83;100.00
23229;BME280;11783;50.350;6.576;2023-04-23T05:22:39;95450.31;;;10.75;100.00
23229;BME280;11783;50.350;6.576;2023-04-23T05:25:06;95448.47;;;10.81;100.00
23229;BME280;11783;50.350;6.576;2023-04-23T05:27:31;95450.31;;;10.75;100.00
23229;BME280;11783;50.350;6.576;2023-04-23T05:29:57;95448.72;;;10.74;100.00
23229;BME280;11783;50.350;6.576;2023-04-23T05:32:23;95450.84;;;10.72;100.00
23229;BME280;11783;50.350;6.576;2023-04-23T05:34:49;95440.75;;;10.79;100.00
23229;BME280;11783;50.350;6.576;2023-04-23T05:37:14;95440.47;;;10.76;100.00
23229;BME280;11783;50.350;6.576;2023-04-23T05:39:40;95433.31;;;10.81;100.00
23229;BME280;11783;50.350;6.576;2023-04-23T05:42:05;95433.81;;;10.73;100.00
23229;BME280;11783;50.350;6.576;2023-04-23T05:44:30;95442.63;;;10.79;100.00
23229;BME280;11783;50.350;6.576;2023-04-23T05:46:56;95441.78;;;10.68;100.00
23229;BME280;11783;50.350;6.576;2023-04-23T05:49:21;95448.72;;;10.69;100.00
23229;BME280;11783;50.350;6.576;2023-04-23T05:51:47;95453.75;;;10.71;100.00
23229;BME280;11783;50.350;6.576;2023-04-23T05:54:12;95450.56;;;10.74;100.00
23229;BME280;11783;50.350;6.576;2023-04-23T05:56:37;95459.31;;;10.64;100.00
23229;BME280;11783;50.350;6.576;2023-04-23T05:59:03;95463.59;;;10.65;100.00
23229;BME280;11783;50.350;6.576;2023-04-23T06:01:28;95457.19;;;10.66;100.00
23229;BME280;11783;50.350;6.576;2023-04-23T06:03:54;95457.22;;;10.71;100.00
23229;BME280;11783;50.350;6.576;2023-04-23T06:06:19;95452.16;;;10.70;100.00
23229;BME280;11783;50.350;6.576;2023-04-23T06:08:44;95443.66;;;10.78;100.00
23229;BME280;11783;50.350;6.576;2023-04-23T06:11:10;95439.41;;;10.67;100.00
23229;BME280;11783;50.350;6.576;2023-04-23T06:13:35;95439.13;;;10.68;100.00
23229;BME280;11783;50.350;6.576;2023-04-23T06:16:07;95439.13;;;10.68;100.00
23229;BME280;11783;50.350;6.576;2023-04-23T06:18:33;95443.38;;;10.64;100.00
23229;BME280;11783;50.350;6.576;2023-04-23T06:20:59;95445.25;;;10.69;100.00
23229;BME280;11783;50.350;6.576;2023-04-23T06:23:32;95444.97;;;10.70;100.00
23229;BME280;11783;50.350;6.576;2023-04-23T06:25:57;95441.25;;;10.66;100.00
23229;BME280;11783;50.350;6.576;2023-04-23T06:28:23;95437.03;;;10.80;100.00
23229;BME280;11783;50.350;6.576;2023-04-23T06:30:48;95433.56;;;10.75;100.00
23229;BME280;11783;50.350;6.576;2023-04-23T06:33:14;95435.44;;;10.79;100.00
23229;BME280;11783;50.350;6.576;2023-04-23T06:35:39;95426.66;;;10.74;100.00
23229;BME280;11783;50.350;6.576;2023-04-23T06:38:05;95427.19;;;10.76;100.00
23229;BME280;11783;50.350;6.576;2023-04-23T06:40:31;95428.28;;;10.85;100.00
23229;BME280;11783;50.350;6.576;2023-04-23T06:42:57;95421.38;;;10.79;100.00
23229;BME280;11783;50.350;6.576;2023-04-23T06:45:22;95417.38;;;10.86;100.00
23229;BME280;11783;50.350;6.576;2023-04-23T06:47:48;95414.44;;;10.93;100.00
23229;BME280;11783;50.350;6.576;2023-04-23T06:50:14;95409.94;;;10.83;100.00
23229;BME280;11783;50.350;6.576;2023-04-23T06:52:40;95415.28;;;10.99;100.00
23229;BME280;11783;50.350;6.576;2023-04-23T06:55:06;95411.53;;;10.95;100.00
23229;BME280;11783;50.350;6.576;2023-04-23T06:57:31;95415.81;;;11.01;100.00
23229;BME280;11783;50.350;6.576;2023-04-23T06:59:57;95416.34;;;11.03;100.00
23229;BME280;11783;50.350;6.576;2023-04-23T07:02:22;95419.75;;;10.88;100.00
23229;BME280;11783;50.350;6.576;2023-04-23T07:04:47;95425.88;;;10.83;100.00
23229;BME280;11783;50.350;6.576;2023-04-23T07:07:13;95412.03;;;10.76;100.00
23229;BME280;11783;50.350;6.576;2023-04-23T07:09:38;95415.47;;;10.67;100.00
23229;BME280;11783;50.350;6.576;2023-04-23T07:12:04;95413.34;;;10.69;100.00
23229;BME280;11783;50.350;6.576;2023-04-23T07:14:30;95419.50;;;10.79;100.00
23229;BME280;11783;50.350;6.576;2023-04-23T07:16:55;95418.97;;;10.82;100.00
23229;BME280;11783;50.350;6.576;2023-04-23T07:19:21;95430.13;;;10.84;100.00
23229;BME280;11783;50.350;6.576;2023-04-23T07:21:46;95420.84;;;10.87;100.00
23229;BME280;11783;50.350;6.576;2023-04-23T07:24:11;95422.44;;;10.98;100.00
23229;BME280;11783;50.350;6.576;2023-04-23T07:26:37;95431.72;;;10.90;100.00
23229;BME280;11783;50.350;6.576;2023-04-23T07:29:03;95426.94;;;10.87;100.00
23229;BME280;11783;50.350;6.576;2023-04-23T07:31:30;95420.31;;;10.85;100.00
23229;BME280;11783;50.350;6.576;2023-04-23T07:33:56;95422.19;;;11.00;100.00
23229;BME280;11783;50.350;6.576;2023-04-23T07:36:21;95415.25;;;11.04;100.00
23229;BME280;11783;50.350;6.576;2023-04-23T07:38:47;95413.66;;;10.87;100.00
23229;BME280;11783;50.350;6.576;2023-04-23T07:41:12;95418.16;;;10.92;100.00
23229;BME280;11783;50.350;6.576;2023-04-23T07:43:39;95417.38;;;10.91;100.00
23229;BME280;11783;50.350;6.576;2023-04-23T07:46:06;95397.47;;;10.99;100.00
23229;BME280;11783;50.350;6.576;2023-04-23T07:48:31;95404.63;;;11.14;100.00
23229;BME280;11783;50.350;6.576;2023-04-23T07:50:59;95407.00;;;11.10;100.00
23229;BME280;11783;50.350;6.576;2023-04-23T07:53:25;95408.63;;;11.16;100.00
23229;BME280;11783;50.350;6.576;2023-04-23T07:55:53;95406.22;;;11.35;100.00
23229;BME280;11783;50.350;6.576;2023-04-23T07:58:19;95403.03;;;11.23;100.00
23229;BME280;11783;50.350;6.576;2023-04-23T08:00:45;95399.56;;;11.22;100.00
23229;BME280;11783;50.350;6.576;2023-04-23T08:03:10;95397.44;;;11.25;100.00
23229;BME280;11783;50.350;6.576;2023-04-23T08:05:36;95397.44;;;11.30;100.00
23229;BME280;11783;50.350;6.576;2023-04-23T08:08:03;95404.59;;;11.49;100.00
23229;BME280;11783;50.350;6.576;2023-04-23T08:10:28;95402.19;;;11.48;100.00
23229;BME280;11783;50.350;6.576;2023-04-23T08:12:53;95406.19;;;11.61;100.00
23229;BME280;11783;50.350;6.576;2023-04-23T08:15:19;95403.53;;;11.56;100.00
23229;BME280;11783;50.350;6.576;2023-04-23T08:17:45;95397.16;;;11.57;100.00
23229;BME280;11783;50.350;6.576;2023-04-23T08:20:10;95395.00;;;11.74;100.00
23229;BME280;11783;50.350;6.576;2023-04-23T08:22:35;95389.66;;;11.79;100.00
23229;BME280;11783;50.350;6.576;2023-04-23T08:25:01;95384.59;;;11.82;100.00
23229;BME280;11783;50.350;6.576;2023-04-23T08:27:26;95390.09;;;12.06;100.00
23229;BME280;11783;50.350;6.576;2023-04-23T08:29:52;95386.84;;;12.20;100.00
23229;BME280;11783;50.350;6.576;2023-04-23T08:32:17;95392.06;;;12.45;100.00
23229;BME280;11783;50.350;6.576;2023-04-23T08:34:43;95394.22;;;12.38;100.00
23229;BME280;11783;50.350;6.576;2023-04-23T08:37:08;95404.81;;;12.53;100.00
23229;BME280;11783;50.350;6.576;2023-04-23T08:39:33;95392.84;;;12.51;100.00
23229;BME280;11783;50.350;6.576;2023-04-23T08:42:09;95387.00;;;12.49;100.00
23229;BME280;11783;50.350;6.576;2023-04-23T08:44:37;95379.75;;;12.54;99.08
23229;BME280;11783;50.350;6.576;2023-04-23T08:47:04;95373.56;;;12.64;100.00
23229;BME280;11783;50.350;6.576;2023-04-23T08:49:32;95374.84;;;12.71;99.83
23229;BME280;11783;50.350;6.576;2023-04-23T08:52:14;95381.34;;;12.94;100.00
23229;BME280;11783;50.350;6.576;2023-04-23T08:54:44;95381.63;;;12.93;93.45
23229;BME280;11783;50.350;6.576;2023-04-23T08:57:10;95381.03;;;13.01;95.32
23229;BME280;11783;50.350;6.576;2023-04-23T08:59:36;95373.59;;;12.98;91.79
23229;BME280;11783;50.350;6.576;2023-04-23T09:02:04;95370.00;;;12.79;92.02
23229;BME280;11783;50.350;6.576;2023-04-23T09:04:34;95376.34;;;12.83;94.84
23229;BME280;11783;50.350;6.576;2023-04-23T09:07:00;95369.38;;;12.92;92.72
23229;BME280;11783;50.350;6.576;2023-04-23T09:09:27;95365.06;;;12.96;91.51
23229;BME280;11783;50.350;6.576;2023-04-23T09:11:54;95365.28;;;13.04;91.48
23229;BME280;11783;50.350;6.576;2023-04-23T09:14:22;95362.25;;;13.16;92.06
23229;BME280;11783;50.350;6.576;2023-04-23T09:16:49;95354.56;;;13.10;93.08
23229;BME280;11783;50.350;6.576;2023-04-23T09:19:16;95359.53;;;13.26;95.75
23229;BME280;11783;50.350;6.576;2023-04-23T09:21:43;95352.69;;;13.44;96.04
23229;BME280;11783;50.350;6.576;2023-04-23T09:24:09;95372.41;;;13.48;93.25
23229;BME280;11783;50.350;6.576;2023-04-23T09:26:43;95359.63;;;13.69;92.96
23229;BME280;11783;50.350;6.576;2023-04-23T09:29:13;95360.06;;;13.52;86.41
23229;BME280;11783;50.350;6.576;2023-04-23T09:31:42;95370.28;;;13.45;87.27
23229;BME280;11783;50.350;6.576;2023-04-23T09:34:07;95351.81;;;13.25;82.94
23229;BME280;11783;50.350;6.576;2023-04-23T09:36:33;95352.25;;;13.32;83.69
23229;BME280;11783;50.350;6.576;2023-04-23T09:39:00;95340.53;;;13.57;89.27
23229;BME280;11783;50.350;6.576;2023-04-23T09:41:27;95350.75;;;13.74;89.75
23229;BME280;11783;50.350;6.576;2023-04-23T09:43:53;95350.03;;;13.68;86.79
23229;BME280;11783;50.350;6.576;2023-04-23T09:46:34;95361.69;;;13.77;87.93
23229;BME280;11783;50.350;6.576;2023-04-23T09:49:03;95358.09;;;13.87;86.57
23229;BME280;11783;50.350;6.576;2023-04-23T09:51:34;95352.09;;;13.76;86.18
23229;BME280;11783;50.350;6.576;2023-04-23T09:54:01;95347.75;;;13.56;85.69
23229;BME280;11783;50.350;6.576;2023-04-23T09:56:29;95357.59;;;13.61;84.53
23229;BME280;11783;50.350;6.576;2023-04-23T09:58:54;95350.16;;;13.58;87.95
23229;BME280;11783;50.350;6.576;2023-04-23T10:01:26;95349.75;;;13.70;87.46
23229;BME280;11783;50.350;6.576;2023-04-23T10:03:52;95353.84;;;13.86;87.60
23229;BME280;11783;50.350;6.576;2023-04-23T10:06:18;95358.69;;;13.84;85.26
23229;BME280;11783;50.350;6.576;2023-04-23T10:08:43;95358.91;;;13.87;83.50
23229;BME280;11783;50.350;6.576;2023-04-23T10:11:10;95352.19;;;13.90;82.46
23229;BME280;11783;50.350;6.576;2023-04-23T10:13:36;95367.53;;;13.79;78.67
23229;BME280;11783;50.350;6.576;2023-04-23T10:16:03;95355.16;;;13.64;81.37
23229;BME280;11783;50.350;6.576;2023-04-23T10:18:30;95351.09;;;13.43;81.08
23229;BME280;11783;50.350;6.576;2023-04-23T10:20:57;95349.25;;;13.39;85.56
23229;BME280;11783;50.350;6.576;2023-04-23T10:23:22;95341.06;;;13.30;86.12
23229;BME280;11783;50.350;6.576;2023-04-23T10:25:49;95347.84;;;13.46;87.69
23229;BME280;11783;50.350;6.576;2023-04-23T10:28:19;95337.31;;;13.60;86.88
23229;BME280;11783;50.350;6.576;2023-04-23T10:30:52;95345.06;;;13.56;85.13
23229;BME280;11783;50.350;6.576;2023-04-23T10:33:19;95344.81;;;13.58;81.49
23229;BME280;11783;50.350;6.576;2023-04-23T10:35:46;95345.84;;;13.62;85.22
23229;BME280;11783;50.350;6.576;2023-04-23T10:38:12;95329.13;;;13.75;84.77
23229;BME280;11783;50.350;6.576;2023-04-23T10:40:39;95327.13;;;13.86;86.34
23229;BME280;11783;50.350;6.576;2023-04-23T10:43:07;95329.50;;;13.87;84.54
23229;BME280;11783;50.350;6.576;2023-04-23T10:45:33;95321.75;;;13.67;83.96
23229;BME280;11783;50.350;6.576;2023-04-23T10:47:58;95323.78;;;13.75;86.52
23229;BME280;11783;50.350;6.576;2023-04-23T10:50:33;95316.56;;;13.52;84.63
23229;BME280;11783;50.350;6.576;2023-04-23T10:53:01;95314.38;;;13.59;86.03
23229;BME280;11783;50.350;6.576;2023-04-23T10:55:28;95315.97;;;13.60;81.68
23229;BME280;11783;50.350;6.576;2023-04-23T11:00:26;95306.78;;;13.90;85.35
23229;BME280;11783;50.350;6.576;2023-04-23T11:02:51;95315.28;;;13.92;83.08
23229;BME280;11783;50.350;6.576;2023-04-23T11:05:18;95312.19;;;13.85;80.92
23229;BME280;11783;50.350;6.576;2023-04-23T11:08:02;95304.25;;;13.80;82.67
23229;BME280;11783;50.350;6.576;2023-04-23T11:10:28;95306.56;;;13.86;83.55
23229;BME280;11783;50.350;6.576;2023-04-23T11:12:55;95297.34;;;13.98;83.12
23229;BME280;11783;50.350;6.576;2023-04-23T11:15:20;95302.47;;;14.13;83.78
23229;BME280;11783;50.350;6.576;2023-04-23T11:20:19;95290.50;;;14.10;76.74
23229;BME280;11783;50.350;6.576;2023-04-23T11:22:49;95273.75;;;14.05;76.63
23229;BME280;11783;50.350;6.576;2023-04-23T11:25:22;95266.94;;;14.31;77.99
23229;BME280;11783;50.350;6.576;2023-04-23T11:27:50;95261.69;;;14.45;80.19
23229;BME280;11783;50.350;6.576;2023-04-23T11:30:19;95263.03;;;14.80;79.12
23229;BME280;11783;50.350;6.576;2023-04-23T11:32:46;95261.00;;;15.04;76.79
23229;BME280;11783;50.350;6.576;2023-04-23T11:35:15;95251.81;;;15.24;73.82
23229;BME280;11783;50.350;6.576;2023-04-23T11:37:42;95259.75;;;15.15;74.18
23229;BME280;11783;50.350;6.576;2023-04-23T11:40:12;95241.19;;;15.05;72.04
23229;BME280;11783;50.350;6.576;2023-04-23T11:42:54;95240.53;;;15.27;70.12
23229;BME280;11783;50.350;6.576;2023-04-23T11:45:21;95242.78;;;15.20;70.77
23229;BME280;11783;50.350;6.576;2023-04-23T11:47:50;95237.16;;;15.35;71.97
23229;BME280;11783;50.350;6.576;2023-04-23T11:50:22;95222.97;;;15.35;71.50
23229;BME280;11783;50.350;6.576;2023-04-23T11:52:48;95209.28;;;15.36;73.36
23229;BME280;11783;50.350;6.576;2023-04-23T11:55:13;95217.31;;;15.36;69.21
23229;BME280;11783;50.350;6.576;2023-04-23T11:57:45;95217.44;;;15.45;70.91
23229;BME280;11783;50.350;6.576;2023-04-23T12:00:29;95204.31;;;15.57;71.61
23229;BME280;11783;50.350;6.576;2023-04-23T12:05:28;95212.66;;;15.56;73.90
23229;BME280;11783;50.350;6.576;2023-04-23T12:08:08;95201.47;;;15.67;71.46
23229;BME280;11783;50.350;6.576;2023-04-23T12:10:51;95195.16;;;15.63;71.48
23229;BME280;11783;50.350;6.576;2023-04-23T12:13:21;95189.44;;;15.79;72.16
23229;BME280;11783;50.350;6.576;2023-04-23T12:15:50;95178.66;;;16.06;71.76
23229;BME280;11783;50.350;6.576;2023-04-23T12:18:16;95171.69;;;16.19;70.11
23229;BME280;11783;50.350;6.576;2023-04-23T12:20:42;95161.75;;;16.19;68.05
23229;BME280;11783;50.350;6.576;2023-04-23T12:23:08;95164.75;;;16.18;66.80
23229;BME280;11783;50.350;6.576;2023-04-23T12:25:34;95158.03;;;16.07;66.75
23229;BME280;11783;50.350;6.576;2023-04-23T12:28:01;95152.41;;;16.17;67.75
23229;BME280;11783;50.350;6.576;2023-04-23T12:30:33;95147.97;;;16.12;68.85
23229;BME280;11783;50.350;6.576;2023-04-23T12:33:02;95150.28;;;16.27;68.89
23229;BME280;11783;50.350;6.576;2023-04-23T12:35:41;95145.06;;;16.22;67.48
23229;BME280;11783;50.350;6.576;2023-04-23T12:38:11;95151.56;;;16.30;69.06
23229;BME280;11783;50.350;6.576;2023-04-23T12:40:46;95151.34;;;16.40;68.50
23229;BME280;11783;50.350;6.576;2023-04-23T12:43:11;95144.13;;;16.49;67.71
23229;BME280;11783;50.350;6.576;2023-04-23T12:45:36;95145.34;;;16.43;64.75
23229;BME280;11783;50.350;6.576;2023-04-23T12:48:05;95151.03;;;16.42;67.23
23229;BME280;11783;50.350;6.576;2023-04-23T12:50:31;95135.66;;;16.33;64.72
23229;BME280;11783;50.350;6.576;2023-04-23T12:52:56;95144.13;;;16.27;66.32
23229;BME280;11783;50.350;6.576;2023-04-23T12:55:22;95146.38;;;15.89;67.32
23229;BME280;11783;50.350;6.576;2023-04-23T12:57:47;95139.16;;;15.98;66.65